createdAt,value
2022-09-20T00:01:10.483Z,100.00
2022-09-20T00:03:42.745Z,100.00
2022-09-20T00:06:12.506Z,100.00
2022-09-20T00:08:39.473Z,100.00
2022-09-20T00:11:09.773Z,100.00
2022-09-20T00:13:37.648Z,100.00
2022-09-20T00:16:09.401Z,100.00
2022-09-20T00:18:36.877Z,100.00
2022-09-20T00:21:04.768Z,100.00
2022-09-20T00:23:31.529Z,100.00
2022-09-20T00:26:04.822Z,100.00
2022-09-20T00:28:32.397Z,100.00
2022-09-20T00:30:58.965Z,100.00
2022-09-20T00:33:45.820Z,100.00
2022-09-20T00:36:12.510Z,100.00
2022-09-20T00:38:38.999Z,100.00
2022-09-20T00:41:07.895Z,100.00
2022-09-20T00:43:43.538Z,100.00
2022-09-20T00:46:26.260Z,100.00
2022-09-20T00:48:57.539Z,100.00
2022-09-20T00:51:31.826Z,100.00
2022-09-20T00:54:02.209Z,100.00
2022-09-20T00:56:35.915Z,100.00
2022-09-20T00:59:19.937Z,100.00
2022-09-20T01:01:52.359Z,100.00
2022-09-20T01:04:22.714Z,100.00
2022-09-20T01:06:53.657Z,100.00
2022-09-20T01:09:20.445Z,100.00
2022-09-20T01:11:48.065Z,100.00
2022-09-20T01:14:19.093Z,100.00
2022-09-20T01:16:45.815Z,100.00
2022-09-20T01:19:25.430Z,100.00
2022-09-20T01:21:53.426Z,100.00
2022-09-20T01:24:31.176Z,100.00
2022-09-20T01:27:21.472Z,100.00
2022-09-20T01:30:07.437Z,100.00
2022-09-20T01:32:50.729Z,100.00
2022-09-20T01:35:21.390Z,100.00
2022-09-20T01:38:09.329Z,100.00
2022-09-20T01:41:06.838Z,100.00
2022-09-20T01:43:46.045Z,100.00
2022-09-20T01:46:32.413Z,100.00
2022-09-20T01:49:20.580Z,100.00
2022-09-20T01:52:38.155Z,100.00
2022-09-20T01:55:43.605Z,100.00
2022-09-20T01:58:39.360Z,100.00
2022-09-20T02:01:14.896Z,100.00
2022-09-20T02:03:53.585Z,100.00
2022-09-20T02:06:46.023Z,100.00
2022-09-20T02:09:12.438Z,100.00
2022-09-20T02:12:02.556Z,100.00
2022-09-20T02:14:40.515Z,100.00
2022-09-20T02:17:17.960Z,100.00
2022-09-20T02:20:20.470Z,100.00
2022-09-20T02:23:24.170Z,100.00
2022-09-20T02:26:36.737Z,100.00
2022-09-20T02:29:16.166Z,100.00
2022-09-20T02:32:07.768Z,100.00
2022-09-20T02:35:05.601Z,100.00
2022-09-20T02:37:35.026Z,100.00
2022-09-20T02:40:33.313Z,100.00
2022-09-20T02:43:29.668Z,100.00
2022-09-20T02:46:22.670Z,100.00
2022-09-20T02:49:00.574Z,100.00
2022-09-20T02:51:41.598Z,100.00
2022-09-20T02:54:35.428Z,100.00
2022-09-20T02:57:15.669Z,100.00
2022-09-20T02:59:50.359Z,100.00
2022-09-20T03:02:27.168Z,100.00
2022-09-20T03:05:15.421Z,100.00
2022-09-20T03:08:23.180Z,100.00
2022-09-20T03:11:11.699Z,100.00
2022-09-20T03:13:50.561Z,100.00
2022-09-20T03:16:30.217Z,100.00
2022-09-20T03:19:15.453Z,100.00
2022-09-20T03:21:53.610Z,100.00
2022-09-20T03:24:39.887Z,100.00
2022-09-20T03:27:37.716Z,100.00
2022-09-20T03:30:16.913Z,100.00
2022-09-20T03:33:08.412Z,100.00
2022-09-20T03:36:08.676Z,100.00
2022-09-20T03:38:37.794Z,100.00
2022-09-20T03:41:35.623Z,100.00
2022-09-20T03:44:39.995Z,100.00
2022-09-20T03:47:19.268Z,100.00
2022-09-20T03:50:15.941Z,100.00
2022-09-20T03:53:16.921Z,100.00
2022-09-20T03:56:21.190Z,100.00
2022-09-20T03:59:25.557Z,100.00
2022-09-20T04:02:20.013Z,100.00
2022-09-20T04:05:00.975Z,100.00
2022-09-20T04:07:39.553Z,100.00
2022-09-20T04:10:25.779Z,100.00
2022-09-20T04:13:21.789Z,100.00
2022-09-20T04:16:05.104Z,100.00
2022-09-20T04:18:35.701Z,100.00
2022-09-20T04:21:08.649Z,100.00
2022-09-20T04:23:39.481Z,100.00
2022-09-20T04:26:06.156Z,100.00
2022-09-20T04:28:43.184Z,100.00
2022-09-20T04:31:20.872Z,100.00
2022-09-20T04:33:51.911Z,100.00
2022-09-20T04:36:35.004Z,100.00
2022-09-20T04:39:26.097Z,100.00
2022-09-20T04:42:22.380Z,100.00
2022-09-20T04:44:52.793Z,100.00
2022-09-20T04:47:46.357Z,100.00
2022-09-20T04:50:49.974Z,100.00
2022-09-20T04:53:29.235Z,100.00
2022-09-20T04:56:01.949Z,100.00
2022-09-20T04:58:47.101Z,100.00
2022-09-20T05:01:17.187Z,100.00
2022-09-20T05:04:22.782Z,100.00
2022-09-20T05:07:36.721Z,100.00
2022-09-20T05:10:45.057Z,100.00
2022-09-20T05:13:20.047Z,100.00
2022-09-20T05:16:26.257Z,100.00
2022-09-20T05:19:26.622Z,100.00
2022-09-20T05:22:00.087Z,100.00
2022-09-20T05:24:52.832Z,100.00
2022-09-20T05:27:44.432Z,100.00
2022-09-20T05:30:23.020Z,100.00
2022-09-20T05:33:18.310Z,100.00
2022-09-20T05:35:48.079Z,100.00
2022-09-20T05:38:33.448Z,100.00
2022-09-20T05:41:30.979Z,100.00
2022-09-20T05:44:50.958Z,100.00
2022-09-20T05:47:24.970Z,100.00
2022-09-20T05:50:10.898Z,100.00
2022-09-20T05:53:07.509Z,100.00
2022-09-20T05:56:12.976Z,100.00
2022-09-20T05:58:42.412Z,100.00
2022-09-20T06:01:15.270Z,100.00
2022-09-20T06:04:01.292Z,100.00
2022-09-20T06:06:52.408Z,100.00
2022-09-20T06:09:45.714Z,100.00
2022-09-20T06:12:35.724Z,100.00
2022-09-20T06:15:24.230Z,100.00
2022-09-20T06:18:13.948Z,100.00
2022-09-20T06:21:05.255Z,100.00
2022-09-20T06:23:32.221Z,100.00
2022-09-20T06:26:07.977Z,100.00
2022-09-20T06:28:48.742Z,100.00
2022-09-20T06:31:18.082Z,100.00
2022-09-20T06:33:56.934Z,100.00
2022-09-20T06:36:48.481Z,100.00
2022-09-20T06:40:06.018Z,100.00
2022-09-20T06:42:32.802Z,100.00
2022-09-20T06:44:59.352Z,100.00
2022-09-20T06:47:27.287Z,100.00
2022-09-20T06:49:53.940Z,100.00
2022-09-20T06:52:22.891Z,100.00
2022-09-20T06:54:55.226Z,100.00
2022-09-20T06:57:36.544Z,100.00
2022-09-20T07:00:04.086Z,100.00
2022-09-20T07:02:30.670Z,100.00
2022-09-20T07:04:58.101Z,100.00
2022-09-20T07:07:25.508Z,100.00
2022-09-20T07:09:52.026Z,100.00
2022-09-20T07:12:19.480Z,100.00
2022-09-20T07:14:45.970Z,100.00
2022-09-20T07:17:13.319Z,100.00
2022-09-20T07:19:40.151Z,100.00
2022-09-20T07:22:06.710Z,100.00
2022-09-20T07:24:33.196Z,100.00
2022-09-20T07:27:02.231Z,100.00
2022-09-20T07:29:29.698Z,100.00
2022-09-20T07:31:57.389Z,100.00
2022-09-20T07:34:24.390Z,100.00
2022-09-20T07:36:51.346Z,100.00
2022-09-20T07:39:18.585Z,100.00
2022-09-20T07:41:51.263Z,100.00
2022-09-20T07:44:21.535Z,100.00
2022-09-20T07:46:51.282Z,100.00
2022-09-20T07:49:18.157Z,100.00
2022-09-20T07:51:44.737Z,100.00
2022-09-20T07:54:12.088Z,100.00
2022-09-20T07:56:38.748Z,100.00
2022-09-20T07:59:05.866Z,100.00
2022-09-20T08:01:32.534Z,100.00
2022-09-20T08:03:59.624Z,100.00
2022-09-20T08:06:26.862Z,100.00
2022-09-20T08:08:53.420Z,100.00
2022-09-20T08:11:28.787Z,100.00
2022-09-20T08:14:06.155Z,100.00
2022-09-20T08:16:41.651Z,100.00
2022-09-20T08:19:08.851Z,100.00
2022-09-20T08:21:38.039Z,100.00
2022-09-20T08:24:04.926Z,100.00
2022-09-20T08:26:31.788Z,100.00
2022-09-20T08:28:59.826Z,100.00
2022-09-20T08:31:31.475Z,100.00
2022-09-20T08:33:59.142Z,100.00
2022-09-20T08:36:26.178Z,100.00
2022-09-20T08:41:51.353Z,100.00
2022-09-20T08:44:45.461Z,100.00
2022-09-20T08:47:25.756Z,100.00
2022-09-20T08:49:57.729Z,100.00
2022-09-20T08:52:37.228Z,100.00
2022-09-20T08:55:22.970Z,100.00
2022-09-20T08:57:53.149Z,97.62
2022-09-20T09:00:32.692Z,99.24
2022-09-20T09:03:04.547Z,100.00
2022-09-20T09:05:43.384Z,96.57
2022-09-20T09:08:16.554Z,92.59
2022-09-20T09:10:54.275Z,92.35
2022-09-20T09:13:37.807Z,86.23
2022-09-20T09:16:13.141Z,85.40
2022-09-20T09:18:42.121Z,87.41
2022-09-20T09:21:17.096Z,87.84
2022-09-20T09:24:16.399Z,87.84
2022-09-20T09:26:43.583Z,85.73
2022-09-20T09:29:15.560Z,86.93
2022-09-20T09:31:43.934Z,88.59
2022-09-20T09:34:26.256Z,86.80
2022-09-20T09:36:55.411Z,85.45
2022-09-20T09:39:31.106Z,80.85
2022-09-20T09:42:01.366Z,77.56
2022-09-20T09:44:30.070Z,77.05
2022-09-20T09:46:57.478Z,73.14
2022-09-20T09:49:34.162Z,74.27
2022-09-20T09:52:14.575Z,75.14
2022-09-20T09:54:50.969Z,74.31
2022-09-20T09:57:52.039Z,78.48
2022-09-20T10:00:27.372Z,74.12
2022-09-20T10:03:01.839Z,75.63
2022-09-20T10:05:32.993Z,78.03
2022-09-20T10:08:11.304Z,79.67
2022-09-20T10:10:58.078Z,78.34
2022-09-20T10:13:44.159Z,76.22
2022-09-20T10:16:32.338Z,73.48
2022-09-20T10:19:24.890Z,73.64
2022-09-20T10:22:16.143Z,73.11
2022-09-20T10:25:01.707Z,70.92
2022-09-20T10:27:39.891Z,72.00
2022-09-20T10:30:17.039Z,70.14
2022-09-20T10:32:46.384Z,68.28
2022-09-20T10:35:34.704Z,68.03
2022-09-20T10:38:14.178Z,67.83
2022-09-20T10:41:24.587Z,67.76
2022-09-20T10:44:08.723Z,66.31
2022-09-20T10:46:43.313Z,67.44
2022-09-20T10:49:42.038Z,66.54
2022-09-20T10:52:37.646Z,66.88
2022-09-20T10:55:39.268Z,63.63
2022-09-20T10:58:43.606Z,66.40
2022-09-20T11:01:24.224Z,65.21
2022-09-20T11:04:24.585Z,65.92
2022-09-20T11:07:15.624Z,66.76
2022-09-20T11:09:55.197Z,65.79
2022-09-20T11:12:50.369Z,68.07
2022-09-20T11:15:35.488Z,66.68
2022-09-20T11:18:24.549Z,66.70
2022-09-20T11:21:00.499Z,67.07
2022-09-20T11:24:12.943Z,66.52
2022-09-20T11:26:50.513Z,66.33
2022-09-20T11:29:54.650Z,66.68
2022-09-20T11:32:26.140Z,68.14
2022-09-20T11:35:01.945Z,68.75
2022-09-20T11:37:35.367Z,68.61
2022-09-20T11:40:16.050Z,68.71
2022-09-20T11:42:43.790Z,70.61
2022-09-20T11:45:13.363Z,69.17
2022-09-20T11:48:00.036Z,67.73
2022-09-20T11:50:58.122Z,68.74
2022-09-20T11:53:49.634Z,69.49
2022-09-20T11:56:20.965Z,67.69
2022-09-20T11:58:50.771Z,69.16
2022-09-20T12:01:28.681Z,68.51
2022-09-20T12:04:32.507Z,62.53
2022-09-20T12:07:02.387Z,62.79
2022-09-20T12:09:41.108Z,64.67
2022-09-20T12:12:27.774Z,63.68
2022-09-20T12:14:56.837Z,63.50
2022-09-20T12:17:48.388Z,64.07
2022-09-20T12:20:33.629Z,63.05
2022-09-20T12:23:38.237Z,64.06
2022-09-20T12:26:14.067Z,64.01
2022-09-20T12:28:43.716Z,64.44
2022-09-20T12:31:22.521Z,64.07
2022-09-20T12:34:01.166Z,64.37
2022-09-20T12:36:36.271Z,64.79
2022-09-20T12:39:11.997Z,67.32
2022-09-20T12:42:04.604Z,68.18
2022-09-20T12:44:49.555Z,70.36
2022-09-20T12:47:20.732Z,69.74
2022-09-20T12:50:05.645Z,70.43
2022-09-20T12:52:50.557Z,71.52
2022-09-20T12:55:29.935Z,72.51
2022-09-20T12:57:58.955Z,70.74
2022-09-20T13:00:40.656Z,69.63
2022-09-20T13:03:21.646Z,70.20
2022-09-20T13:06:04.867Z,72.25
2022-09-20T13:08:36.676Z,70.32
2022-09-20T13:11:06.425Z,68.03
2022-09-20T13:13:54.750Z,68.25
2022-09-20T13:16:52.157Z,68.24
2022-09-20T13:19:22.993Z,67.72
2022-09-20T13:22:00.789Z,66.46
2022-09-20T13:24:37.105Z,67.48
2022-09-20T13:27:09.750Z,68.09
2022-09-20T13:29:42.829Z,71.63
2022-09-20T13:32:26.409Z,72.28
2022-09-20T13:35:06.918Z,70.06
2022-09-20T13:37:35.029Z,66.76
2022-09-20T13:40:03.573Z,66.08
2022-09-20T13:42:35.741Z,65.32
2022-09-20T13:45:03.812Z,62.98
2022-09-20T13:47:32.457Z,63.65
2022-09-20T13:50:15.135Z,64.41
2022-09-20T13:52:52.781Z,63.52
2022-09-20T13:55:33.182Z,63.01
2022-09-20T13:58:09.705Z,64.35
2022-09-20T14:00:38.384Z,63.86
2022-09-20T14:03:05.139Z,64.22
2022-09-20T14:05:31.898Z,64.82
2022-09-20T14:08:00.706Z,65.88
2022-09-20T14:10:31.109Z,67.69
2022-09-20T14:13:02.294Z,67.65
2022-09-20T14:15:34.557Z,65.50
2022-09-20T14:18:04.445Z,67.23
2022-09-20T14:20:32.071Z,67.26
2022-09-20T14:22:59.426Z,71.07
2022-09-20T14:25:27.557Z,71.50
2022-09-20T14:28:19.795Z,72.13
2022-09-20T14:30:48.432Z,69.95
2022-09-20T14:33:19.457Z,69.21
2022-09-20T14:35:51.885Z,70.14
2022-09-20T14:38:26.535Z,68.95
2022-09-20T14:40:53.299Z,65.48
2022-09-20T14:43:38.023Z,65.52
2022-09-20T14:46:09.963Z,66.97
2022-09-20T14:48:41.273Z,71.96
2022-09-20T14:51:17.438Z,68.76
2022-09-20T14:53:45.654Z,69.29
2022-09-20T14:56:15.032Z,66.96
2022-09-20T14:59:05.687Z,64.10
2022-09-20T15:01:33.803Z,64.34
2022-09-20T15:04:07.721Z,63.97
2022-09-20T15:06:40.156Z,62.12
2022-09-20T15:09:06.924Z,63.27
2022-09-20T15:11:33.402Z,62.81
2022-09-20T15:13:59.892Z,63.16
2022-09-20T15:16:28.278Z,64.81
2022-09-20T15:18:54.984Z,64.99
2022-09-20T15:21:21.864Z,66.31
2022-09-20T15:23:48.624Z,68.58
2022-09-20T15:26:16.442Z,67.01
2022-09-20T15:28:42.932Z,69.09
2022-09-20T15:31:10.259Z,67.00
2022-09-20T15:33:36.783Z,67.25
2022-09-20T15:36:03.973Z,68.45
2022-09-20T15:38:30.819Z,69.04
2022-09-20T15:41:00.884Z,69.38
2022-09-20T15:43:31.065Z,69.30
2022-09-20T15:46:17.912Z,69.09
2022-09-20T15:48:44.433Z,69.99
2022-09-20T15:51:12.230Z,73.66
2022-09-20T15:54:08.075Z,71.60
2022-09-20T15:56:36.946Z,68.42
2022-09-20T15:59:08.902Z,70.50
2022-09-20T16:01:41.176Z,70.73
2022-09-20T16:04:12.413Z,71.84
2022-09-20T16:06:41.377Z,71.31
2022-09-20T16:09:08.422Z,71.75
2022-09-20T16:11:36.548Z,73.71
2022-09-20T16:14:03.443Z,73.86
2022-09-20T16:16:37.389Z,76.93
2022-09-20T16:19:20.174Z,78.36
2022-09-20T16:21:55.080Z,80.58
2022-09-20T16:24:26.098Z,81.03
2022-09-20T16:26:53.385Z,81.66
2022-09-20T16:29:22.061Z,83.59
2022-09-20T16:31:50.136Z,82.23
2022-09-20T16:34:19.048Z,83.35
2022-09-20T16:36:49.568Z,81.39
2022-09-20T16:39:18.152Z,83.82
2022-09-20T16:41:48.964Z,82.09
2022-09-20T16:44:15.797Z,84.49
2022-09-20T16:46:42.245Z,84.02
2022-09-20T16:49:12.487Z,85.72
2022-09-20T16:51:43.115Z,87.68
2022-09-20T16:54:12.392Z,90.25
2022-09-20T16:56:42.116Z,89.92
2022-09-20T16:59:09.262Z,90.11
2022-09-20T17:01:39.327Z,91.48
2022-09-20T17:04:06.835Z,93.35
2022-09-20T17:06:35.428Z,94.65
2022-09-20T17:09:02.300Z,95.86
2022-09-20T17:11:31.511Z,95.10
2022-09-20T17:13:58.407Z,96.69
2022-09-20T17:16:26.359Z,97.15
2022-09-20T17:18:55.400Z,99.00
2022-09-20T17:21:22.598Z,100.00
2022-09-20T17:23:55.048Z,100.00
2022-09-20T17:26:27.382Z,100.00
2022-09-20T17:28:59.062Z,100.00
2022-09-20T17:31:33.655Z,100.00
2022-09-20T17:34:02.313Z,100.00
2022-09-20T17:36:31.997Z,100.00
2022-09-20T17:39:04.175Z,100.00
2022-09-20T17:41:32.893Z,100.00
2022-09-20T17:44:02.637Z,100.00
2022-09-20T17:46:31.804Z,100.00
2022-09-20T17:49:07.554Z,100.00
2022-09-20T17:51:36.888Z,100.00
2022-09-20T17:54:04.283Z,100.00
2022-09-20T17:56:31.362Z,100.00
2022-09-20T17:59:00.144Z,100.00
2022-09-20T18:01:28.667Z,100.00
2022-09-20T18:03:58.394Z,100.00
2022-09-20T18:06:29.526Z,100.00
2022-09-20T18:08:58.872Z,100.00
2022-09-20T18:11:34.400Z,100.00
2022-09-20T18:14:02.340Z,100.00
2022-09-20T18:16:30.846Z,100.00
2022-09-20T18:18:59.473Z,100.00
2022-09-20T18:21:28.776Z,100.00
2022-09-20T18:23:56.052Z,100.00
2022-09-20T18:26:25.544Z,100.00
2022-09-20T18:28:52.191Z,100.00
2022-09-20T18:31:19.140Z,100.00
2022-09-20T18:33:45.769Z,100.00
2022-09-20T18:36:12.280Z,100.00
2022-09-20T18:38:39.350Z,100.00
2022-09-20T18:41:05.885Z,100.00
2022-09-20T18:43:33.356Z,100.00
2022-09-20T18:46:00.481Z,100.00
2022-09-20T18:48:33.246Z,100.00
2022-09-20T18:51:02.408Z,100.00
2022-09-20T18:53:30.916Z,100.00
2022-09-20T18:56:06.383Z,100.00
2022-09-20T18:58:33.298Z,100.00
2022-09-20T19:01:21.536Z,100.00
2022-09-20T19:04:07.178Z,100.00
2022-09-20T19:07:14.311Z,100.00
2022-09-20T19:09:52.632Z,100.00
2022-09-20T19:12:32.277Z,100.00
2022-09-20T19:15:14.596Z,100.00
2022-09-20T19:17:56.234Z,100.00
2022-09-20T19:20:43.162Z,100.00
2022-09-20T19:23:53.993Z,100.00
2022-09-20T19:26:27.814Z,100.00
2022-09-20T19:29:00.277Z,100.00
2022-09-20T19:31:32.687Z,100.00
2022-09-20T19:34:01.934Z,100.00
2022-09-20T19:36:56.337Z,100.00
2022-09-20T19:39:44.753Z,100.00
2022-09-20T19:42:27.912Z,100.00
2022-09-20T19:45:15.552Z,100.00
2022-09-20T19:47:50.391Z,100.00
2022-09-20T19:50:42.482Z,100.00
2022-09-20T19:53:10.420Z,100.00
2022-09-20T19:55:37.970Z,100.00
2022-09-20T19:58:05.093Z,100.00
2022-09-20T20:00:32.227Z,100.00
2022-09-20T20:02:59.120Z,100.00
2022-09-20T20:05:27.657Z,100.00
2022-09-20T20:08:13.215Z,100.00
2022-09-20T20:10:45.806Z,100.00
2022-09-20T20:13:46.517Z,100.00
2022-09-20T20:16:16.607Z,100.00
2022-09-20T20:19:20.046Z,100.00
2022-09-20T20:22:08.751Z,100.00
2022-09-20T20:24:51.889Z,100.00
2022-09-20T20:27:19.337Z,100.00
2022-09-20T20:29:46.527Z,100.00
2022-09-20T20:32:13.424Z,100.00
2022-09-20T20:34:40.199Z,100.00
2022-09-20T20:37:07.926Z,100.00
2022-09-20T20:39:34.925Z,100.00
2022-09-20T20:42:03.119Z,100.00
2022-09-20T20:44:31.649Z,100.00
2022-09-20T20:46:58.449Z,100.00
2022-09-20T20:49:24.926Z,100.00
2022-09-20T20:51:51.774Z,100.00
2022-09-20T20:54:18.475Z,100.00
2022-09-20T20:56:46.051Z,100.00
2022-09-20T20:59:13.982Z,100.00
2022-09-20T21:01:46.020Z,100.00
2022-09-20T21:04:15.318Z,100.00
2022-09-20T21:06:42.327Z,100.00
2022-09-20T21:09:10.626Z,100.00
2022-09-20T21:11:40.377Z,100.00
2022-09-20T21:14:07.551Z,100.00
2022-09-20T21:16:36.671Z,100.00
2022-09-20T21:19:05.781Z,100.00
2022-09-20T21:21:35.228Z,100.00
2022-09-20T21:24:04.446Z,100.00
2022-09-20T21:26:32.804Z,100.00
2022-09-20T21:29:01.830Z,100.00
2022-09-20T21:31:34.524Z,100.00
2022-09-20T21:34:01.792Z,100.00
2022-09-20T21:36:30.091Z,100.00
2022-09-20T21:38:57.452Z,100.00
2022-09-20T21:41:32.871Z,100.00
2022-09-20T21:44:01.334Z,100.00
2022-09-20T21:46:48.429Z,100.00
2022-09-20T21:49:15.202Z,100.00
2022-09-20T21:51:43.291Z,100.00
2022-09-20T21:54:11.099Z,100.00
2022-09-20T21:56:39.801Z,100.00
2022-09-20T21:59:07.629Z,100.00
2022-09-20T22:01:37.070Z,100.00
2022-09-20T22:04:09.581Z,100.00
2022-09-20T22:06:42.291Z,100.00
2022-09-20T22:09:11.685Z,100.00
2022-09-20T22:11:46.605Z,100.00
2022-09-20T22:14:14.871Z,100.00
2022-09-20T22:16:43.502Z,100.00
2022-09-20T22:19:12.980Z,100.00
2022-09-20T22:21:41.845Z,100.00
2022-09-20T22:24:10.496Z,100.00
2022-09-20T22:26:44.275Z,100.00
2022-09-20T22:29:10.915Z,100.00
2022-09-20T22:31:44.726Z,100.00
2022-09-20T22:34:14.246Z,100.00
2022-09-20T22:36:41.780Z,100.00
2022-09-20T22:39:10.293Z,100.00
2022-09-20T22:41:38.343Z,100.00
2022-09-20T22:44:05.883Z,100.00
2022-09-20T22:46:33.578Z,100.00
2022-09-20T22:49:00.667Z,100.00
2022-09-20T22:51:30.932Z,100.00
2022-09-20T22:53:58.199Z,100.00
2022-09-20T22:56:29.587Z,100.00
2022-09-20T22:59:03.108Z,100.00
2022-09-20T23:01:33.177Z,100.00
2022-09-20T23:04:03.269Z,100.00
2022-09-20T23:06:32.468Z,100.00
2022-09-20T23:09:01.431Z,100.00
2022-09-20T23:11:29.168Z,100.00
2022-09-20T23:14:00.805Z,100.00
2022-09-20T23:16:30.306Z,100.00
2022-09-20T23:18:58.736Z,100.00
2022-09-20T23:21:25.885Z,100.00
2022-09-20T23:23:54.763Z,100.00
2022-09-20T23:26:21.998Z,100.00
2022-09-20T23:28:57.461Z,100.00
2022-09-20T23:31:24.291Z,100.00
2022-09-20T23:33:52.445Z,100.00
2022-09-20T23:36:19.801Z,100.00
2022-09-20T23:38:47.803Z,100.00
2022-09-20T23:41:16.863Z,100.00
2022-09-20T23:43:43.655Z,100.00
2022-09-20T23:46:12.077Z,100.00
2022-09-20T23:48:41.541Z,100.00
2022-09-20T23:51:10.250Z,100.00
2022-09-20T23:53:37.365Z,100.00
2022-09-20T23:56:06.149Z,100.00
2022-09-20T23:58:35.962Z,100.00
